createdAt,value
2023-01-09T05:00:52.353Z,7.07
2023-01-09T05:01:52.434Z,7.05
2023-01-09T05:02:52.279Z,7.02
2023-01-09T05:03:52.232Z,6.99
2023-01-09T05:04:52.234Z,6.98
2023-01-09T05:05:52.201Z,7.02
2023-01-09T05:06:52.264Z,7.02
2023-01-09T05:07:52.189Z,7.02
2023-01-09T05:08:52.207Z,7.02
2023-01-09T05:09:52.227Z,6.99
2023-01-09T05:10:52.179Z,6.97
2023-01-09T05:11:53.118Z,6.95
2023-01-09T05:12:52.146Z,6.95
2023-01-09T05:13:52.100Z,6.91
2023-01-09T05:14:52.111Z,6.89
2023-01-09T05:15:59.156Z,6.88
2023-01-09T05:16:52.125Z,6.88
2023-01-09T05:17:52.057Z,6.87
2023-01-09T05:18:52.065Z,6.85
2023-01-09T05:19:52.028Z,6.81
2023-01-09T05:20:52.086Z,6.80
2023-01-09T05:21:52.024Z,6.77
2023-01-09T05:22:52.013Z,6.74
2023-01-09T05:23:52.010Z,6.71
2023-01-09T05:24:52.003Z,6.69
2023-01-09T05:25:52.045Z,6.66
2023-01-09T05:26:51.963Z,6.64
2023-01-09T05:27:51.925Z,6.61
2023-01-09T05:28:51.961Z,6.59
2023-01-09T05:29:51.926Z,6.56
2023-01-09T05:30:51.922Z,6.54
2023-01-09T05:31:51.958Z,6.51
2023-01-09T05:32:51.905Z,6.48
2023-01-09T05:33:51.862Z,6.44
2023-01-09T05:34:51.886Z,6.41
2023-01-09T05:35:51.911Z,6.40
2023-01-09T05:36:51.840Z,6.38
2023-01-09T05:37:52.062Z,6.36
2023-01-09T05:38:51.823Z,6.36
2023-01-09T05:39:51.783Z,6.33
2023-01-09T05:40:51.889Z,6.31
2023-01-09T05:41:51.788Z,6.27
2023-01-09T05:42:51.827Z,6.25
2023-01-09T05:43:51.770Z,6.22
2023-01-09T05:44:51.819Z,6.19
2023-01-09T05:45:51.803Z,6.17
2023-01-09T05:46:51.748Z,6.15
2023-01-09T05:47:51.698Z,6.09
2023-01-09T05:48:51.725Z,6.03
2023-01-09T05:49:51.658Z,5.99
2023-01-09T05:50:51.659Z,5.96
2023-01-09T05:51:51.680Z,5.96
2023-01-09T05:52:51.636Z,5.96
2023-01-09T05:53:51.596Z,5.93
2023-01-09T05:54:51.620Z,5.90
2023-01-09T05:55:51.599Z,5.86
2023-01-09T05:56:51.596Z,5.82
2023-01-09T05:57:51.609Z,5.81
2023-01-09T05:58:51.567Z,5.76
2023-01-09T05:59:51.531Z,5.72
2023-01-09T06:00:51.703Z,5.71
2023-01-09T06:01:51.513Z,5.71
2023-01-09T06:02:51.714Z,5.71
2023-01-09T06:03:51.660Z,5.67
2023-01-09T06:04:51.624Z,5.65
2023-01-09T06:05:51.462Z,5.65
2023-01-09T06:06:51.483Z,5.63
2023-01-09T06:07:51.429Z,5.64
2023-01-09T06:08:51.454Z,5.61
2023-01-09T06:09:51.482Z,5.60
2023-01-09T06:10:51.416Z,5.58
2023-01-09T06:11:51.579Z,5.56
2023-01-09T06:12:51.416Z,5.53
2023-01-09T06:13:51.354Z,5.48
2023-01-09T06:14:51.361Z,5.46
2023-01-09T06:15:51.409Z,5.43
2023-01-09T06:16:51.376Z,5.42
2023-01-09T06:17:51.349Z,5.40
2023-01-09T06:18:51.309Z,5.38
2023-01-09T06:19:51.310Z,5.40
2023-01-09T06:20:51.270Z,5.42
2023-01-09T06:21:51.339Z,5.40
2023-01-09T06:22:51.254Z,5.43
2023-01-09T06:23:51.239Z,5.42
2023-01-09T06:24:51.229Z,5.40
2023-01-09T06:25:51.208Z,5.42
2023-01-09T06:26:51.223Z,5.42
2023-01-09T06:27:51.333Z,5.43
2023-01-09T06:28:55.246Z,5.46
2023-01-09T06:29:51.149Z,5.48
2023-01-09T06:30:51.181Z,5.48
2023-01-09T06:31:51.132Z,5.51
2023-01-09T06:32:51.117Z,5.51
2023-01-09T06:33:51.293Z,5.53
2023-01-09T06:34:51.173Z,5.56
2023-01-09T06:35:51.070Z,5.57
2023-01-09T06:36:51.104Z,5.54
2023-01-09T06:37:51.059Z,5.54
2023-01-09T06:38:51.069Z,5.54
2023-01-09T06:39:51.072Z,5.53
2023-01-09T06:40:51.025Z,5.53
2023-01-09T06:41:50.992Z,5.51
2023-01-09T06:42:51.037Z,5.48
2023-01-09T06:43:50.983Z,5.45
2023-01-09T06:44:51.023Z,5.45
2023-01-09T06:45:51.246Z,5.40
2023-01-09T06:46:50.977Z,5.40
2023-01-09T06:47:50.925Z,5.39
2023-01-09T06:48:50.931Z,5.40
2023-01-09T06:49:50.902Z,5.39
2023-01-09T06:50:50.913Z,5.35
2023-01-09T06:51:50.921Z,5.33
2023-01-09T06:52:50.874Z,5.30
2023-01-09T06:53:50.855Z,5.27
2023-01-09T06:54:50.899Z,5.24
2023-01-09T06:55:50.842Z,5.21
2023-01-09T06:56:50.830Z,5.20
2023-01-09T06:57:50.787Z,5.18
2023-01-09T06:58:50.814Z,5.17
2023-01-09T06:59:50.782Z,5.15
2023-01-09T07:00:50.860Z,5.15
2023-01-09T07:01:50.961Z,5.15
2023-01-09T07:02:50.767Z,5.12
2023-01-09T07:03:50.749Z,5.13
2023-01-09T07:04:50.741Z,5.10
2023-01-09T07:05:50.695Z,5.12
2023-01-09T07:06:50.899Z,5.10
2023-01-09T07:07:50.688Z,5.13
2023-01-09T07:08:50.738Z,5.13
2023-01-09T07:09:50.683Z,5.15
2023-01-09T07:10:50.655Z,5.13
2023-01-09T07:11:50.623Z,5.13
2023-01-09T07:12:50.809Z,5.15
2023-01-09T07:13:50.585Z,5.15
2023-01-09T07:14:50.650Z,5.12
2023-01-09T07:15:50.637Z,5.13
2023-01-09T07:16:50.592Z,5.18
2023-01-09T07:17:50.562Z,5.22
2023-01-09T07:18:50.666Z,5.24
2023-01-09T07:19:50.573Z,5.27
2023-01-09T07:20:50.537Z,5.31
2023-01-09T07:21:50.522Z,5.38
2023-01-09T07:22:50.505Z,5.45
2023-01-09T07:23:50.486Z,5.51
2023-01-09T07:24:50.496Z,5.57
2023-01-09T07:25:50.470Z,5.64
2023-01-09T07:26:50.451Z,5.65
2023-01-09T07:27:50.465Z,5.72
2023-01-09T07:28:50.442Z,5.81
2023-01-09T07:29:50.402Z,5.85
2023-01-09T07:30:50.684Z,5.90
2023-01-09T07:31:50.357Z,5.91
2023-01-09T07:32:50.452Z,5.93
2023-01-09T07:33:50.353Z,5.93
2023-01-09T07:34:50.357Z,5.94
2023-01-09T07:35:50.320Z,5.94
2023-01-09T07:36:50.398Z,5.99
2023-01-09T07:37:50.289Z,5.99
2023-01-09T07:38:50.306Z,6.01
2023-01-09T07:39:50.281Z,6.01
2023-01-09T07:40:50.317Z,6.03
2023-01-09T07:41:50.293Z,6.04
2023-01-09T07:42:50.433Z,6.06
2023-01-09T07:43:50.214Z,6.08
2023-01-09T07:44:50.217Z,6.08
2023-01-09T07:45:50.184Z,6.12
2023-01-09T07:46:50.195Z,6.14
2023-01-09T07:47:50.162Z,6.15
2023-01-09T07:48:50.225Z,6.15
2023-01-09T07:49:50.193Z,6.17
2023-01-09T07:50:50.334Z,6.18
2023-01-09T07:51:50.127Z,6.18
2023-01-09T07:52:50.136Z,6.17
2023-01-09T07:53:50.083Z,6.18
2023-01-09T07:54:50.124Z,6.17
2023-01-09T07:55:50.072Z,6.18
2023-01-09T07:56:50.145Z,6.15
2023-01-09T07:57:50.081Z,6.11
2023-01-09T07:58:50.045Z,6.08
2023-01-09T07:59:50.057Z,6.08
2023-01-09T08:00:50.176Z,6.06
2023-01-09T08:01:50.097Z,6.00
2023-01-09T08:02:50.016Z,5.96
2023-01-09T08:03:49.971Z,5.93
2023-01-09T08:04:49.976Z,5.89
2023-01-09T08:05:51.558Z,5.86
2023-01-09T08:06:49.973Z,5.89
2023-01-09T08:07:49.915Z,5.86
2023-01-09T08:08:49.921Z,5.85
2023-01-09T08:09:49.899Z,5.81
2023-01-09T08:10:49.937Z,5.76
2023-01-09T08:11:49.895Z,5.76
2023-01-09T08:12:49.883Z,5.76
2023-01-09T08:13:49.881Z,5.74
2023-01-09T08:14:49.847Z,5.72
2023-01-09T08:15:49.855Z,5.68
2023-01-09T08:16:50.199Z,5.68
2023-01-09T08:17:49.813Z,5.64
2023-01-09T08:18:49.803Z,5.61
2023-01-09T08:19:49.756Z,5.63
2023-01-09T08:20:49.781Z,5.64
2023-01-09T08:21:49.734Z,5.64
2023-01-09T08:22:49.812Z,5.60
2023-01-09T08:23:49.709Z,5.58
2023-01-09T08:24:49.726Z,5.56
2023-01-09T08:25:49.702Z,5.57
2023-01-09T08:26:49.698Z,5.57
2023-01-09T08:27:49.753Z,5.60
2023-01-09T08:28:49.892Z,5.57
2023-01-09T08:29:49.779Z,5.54
2023-01-09T08:30:49.633Z,5.54
2023-01-09T08:31:49.984Z,5.56
2023-01-09T08:32:49.588Z,5.57
2023-01-09T08:33:49.639Z,5.57
2023-01-09T08:34:49.689Z,5.58
2023-01-09T08:35:49.670Z,5.58
2023-01-09T08:36:49.574Z,5.58
2023-01-09T08:37:49.553Z,5.58
2023-01-09T08:38:49.522Z,5.58
2023-01-09T08:39:49.529Z,5.58
2023-01-09T08:40:49.540Z,5.63
2023-01-09T08:41:49.537Z,5.65
2023-01-09T08:42:49.460Z,5.65
2023-01-09T08:43:49.480Z,5.64
2023-01-09T08:44:49.452Z,5.67
2023-01-09T08:45:49.466Z,5.64
2023-01-09T08:46:49.881Z,5.67
2023-01-09T08:47:49.417Z,5.71
2023-01-09T08:48:49.420Z,5.71
2023-01-09T08:49:49.413Z,5.72
2023-01-09T08:50:49.364Z,5.72
2023-01-09T08:51:49.389Z,5.74
2023-01-09T08:52:49.505Z,5.74
2023-01-09T08:53:49.336Z,5.75
2023-01-09T08:54:49.330Z,5.75
2023-01-09T08:55:49.331Z,5.75
2023-01-09T08:56:49.330Z,5.75
2023-01-09T08:57:49.284Z,5.76
2023-01-09T08:58:49.345Z,5.76
2023-01-09T08:59:49.270Z,5.79
2023-01-09T09:00:49.273Z,5.83
2023-01-09T09:01:49.246Z,5.86
2023-01-09T09:02:49.264Z,5.86
2023-01-09T09:03:49.221Z,5.86
2023-01-09T09:04:49.966Z,5.90
2023-01-09T09:05:49.194Z,5.90
2023-01-09T09:06:49.225Z,5.91
2023-01-09T09:07:49.167Z,5.93
2023-01-09T09:08:49.131Z,5.96
2023-01-09T09:09:49.162Z,6.00
2023-01-09T09:10:49.197Z,6.01
2023-01-09T09:11:49.118Z,6.00
2023-01-09T09:12:49.082Z,5.99
2023-01-09T09:13:49.099Z,6.00
2023-01-09T09:14:49.126Z,6.03
2023-01-09T09:15:49.147Z,6.09
2023-01-09T09:16:49.551Z,6.12
2023-01-09T09:17:49.062Z,6.17
2023-01-09T09:18:49.010Z,6.19
2023-01-09T09:19:49.052Z,6.27
2023-01-09T09:20:48.989Z,6.30
2023-01-09T09:21:49.020Z,6.34
2023-01-09T09:22:49.495Z,6.38
2023-01-09T09:23:48.986Z,6.43
2023-01-09T09:24:48.958Z,6.48
2023-01-09T09:25:48.929Z,6.51
2023-01-09T09:26:48.931Z,6.55
2023-01-09T09:27:48.937Z,6.61
2023-01-09T09:28:48.948Z,6.64
2023-01-09T09:29:48.886Z,6.67
2023-01-09T09:30:48.856Z,6.73
2023-01-09T09:31:48.878Z,6.74
2023-01-09T09:32:48.832Z,6.77
2023-01-09T09:33:48.889Z,6.81
2023-01-09T09:34:48.893Z,6.85
2023-01-09T09:35:48.816Z,6.91
2023-01-09T09:36:48.824Z,6.92
2023-01-09T09:37:48.803Z,6.99
2023-01-09T09:38:48.767Z,7.03
2023-01-09T09:39:48.784Z,7.06
2023-01-09T09:40:48.773Z,7.07
2023-01-09T09:41:48.760Z,7.15
2023-01-09T09:42:48.787Z,7.16
2023-01-09T09:43:48.712Z,7.21
2023-01-09T09:44:53.897Z,7.27
2023-01-09T09:45:49.705Z,7.31
2023-01-09T09:46:48.681Z,7.34
2023-01-09T09:47:48.728Z,7.39
2023-01-09T09:48:48.622Z,7.45
2023-01-09T09:49:48.640Z,7.48
2023-01-09T09:50:48.591Z,7.50
2023-01-09T09:51:48.655Z,7.55
2023-01-09T09:52:48.579Z,7.58
2023-01-09T09:53:48.772Z,7.63
2023-01-09T09:54:48.559Z,7.68
2023-01-09T09:55:48.559Z,7.72
2023-01-09T09:56:48.529Z,7.80
2023-01-09T09:57:48.534Z,7.86
2023-01-09T09:58:48.508Z,7.90
2023-01-09T09:59:48.556Z,7.95
2023-01-09T10:00:48.469Z,7.97
2023-01-09T10:01:48.496Z,8.01
2023-01-09T10:02:48.589Z,8.00
2023-01-09T10:03:48.496Z,8.04
2023-01-09T10:04:48.417Z,8.05
2023-01-09T10:05:48.486Z,8.11
2023-01-09T10:06:48.411Z,8.15
2023-01-09T10:07:48.488Z,8.18
2023-01-09T10:08:48.385Z,8.20
2023-01-09T10:09:48.389Z,8.23
2023-01-09T10:10:48.393Z,8.23
2023-01-09T10:11:48.365Z,8.23
2023-01-09T10:12:48.321Z,8.12
2023-01-09T10:13:48.335Z,8.07
2023-01-09T10:14:48.309Z,8.02
2023-01-09T10:15:48.429Z,7.98
2023-01-09T10:16:48.356Z,7.97
2023-01-09T10:17:48.369Z,7.97
2023-01-09T10:18:48.244Z,8.01
2023-01-09T10:19:48.271Z,8.00
2023-01-09T10:20:48.228Z,8.01
2023-01-09T10:21:48.212Z,8.04
2023-01-09T10:22:48.271Z,8.01
2023-01-09T10:23:48.245Z,7.98
2023-01-09T10:24:48.205Z,7.93
2023-01-09T10:25:48.182Z,8.00
2023-01-09T10:26:48.142Z,8.01
2023-01-09T10:27:48.143Z,8.10
2023-01-09T10:28:48.280Z,8.10
2023-01-09T10:29:48.119Z,8.12
2023-01-09T10:30:48.096Z,8.16
2023-01-09T10:31:48.169Z,8.16
2023-01-09T10:32:48.155Z,8.18
2023-01-09T10:33:48.210Z,8.18
2023-01-09T10:34:48.090Z,8.16
2023-01-09T10:35:48.442Z,8.16
2023-01-09T10:36:48.156Z,8.18
2023-01-09T10:37:48.017Z,8.22
2023-01-09T10:38:47.986Z,8.29
2023-01-09T10:39:48.004Z,8.40
2023-01-09T10:40:48.152Z,8.48
2023-01-09T10:41:48.075Z,8.59
2023-01-09T10:42:48.035Z,8.65
2023-01-09T10:43:48.015Z,8.70
2023-01-09T10:44:48.156Z,8.73
2023-01-09T10:45:47.938Z,8.76
2023-01-09T10:46:47.947Z,8.84
2023-01-09T10:47:47.954Z,8.87
2023-01-09T10:48:48.223Z,8.92
2023-01-09T10:49:47.870Z,8.94
2023-01-09T10:50:48.125Z,8.96
2023-01-09T10:51:47.845Z,9.04
2023-01-09T10:52:47.803Z,9.01
2023-01-09T10:53:47.833Z,9.04
2023-01-09T10:54:47.884Z,9.10
2023-01-09T10:55:47.849Z,9.05
2023-01-09T10:56:47.753Z,9.10
2023-01-09T10:57:47.794Z,9.11
2023-01-09T10:58:47.891Z,9.13
2023-01-09T10:59:47.740Z,9.13
2023-01-09T11:00:47.993Z,9.15
2023-01-09T11:01:47.713Z,9.20
2023-01-09T11:02:47.682Z,9.23
2023-01-09T11:03:47.739Z,9.24
2023-01-09T11:04:47.661Z,9.29
2023-01-09T11:05:47.675Z,9.31
2023-01-09T11:06:47.718Z,9.33
2023-01-09T11:07:47.641Z,9.36
2023-01-09T11:08:47.636Z,9.33
2023-01-09T11:09:47.627Z,9.33
2023-01-09T11:10:47.594Z,9.33
2023-01-09T11:11:47.604Z,9.33
2023-01-09T11:12:47.699Z,9.31
2023-01-09T11:13:47.581Z,9.26
2023-01-09T11:14:47.539Z,9.21
2023-01-09T11:15:59.186Z,9.20
2023-01-09T11:16:48.105Z,9.21
2023-01-09T11:17:48.013Z,9.14
2023-01-09T11:18:48.189Z,9.05
2023-01-09T11:19:47.973Z,9.04
2023-01-09T11:20:47.691Z,9.01
2023-01-09T11:21:48.093Z,9.02
2023-01-09T11:22:47.855Z,9.04
2023-01-09T11:23:47.963Z,9.04
2023-01-09T11:24:48.109Z,9.04
2023-01-09T11:25:47.778Z,9.04
2023-01-09T11:26:47.915Z,9.01
2023-01-09T11:27:48.103Z,9.02
2023-01-09T11:28:48.049Z,8.96
2023-01-09T11:29:48.015Z,8.95
2023-01-09T11:30:48.484Z,8.98
2023-01-09T11:31:47.893Z,8.98
2023-01-09T11:32:48.035Z,8.99
2023-01-09T11:33:47.957Z,8.99
2023-01-09T11:34:47.987Z,9.01
2023-01-09T11:35:47.880Z,8.96
2023-01-09T11:36:48.511Z,8.95
2023-01-09T11:37:47.807Z,8.92
2023-01-09T11:38:47.757Z,8.92
2023-01-09T11:39:47.923Z,8.94
2023-01-09T11:40:47.713Z,8.99
2023-01-09T11:41:49.562Z,9.02
2023-01-09T11:42:47.833Z,9.11
2023-01-09T11:43:47.871Z,9.18
2023-01-09T11:44:47.840Z,9.26
2023-01-09T11:45:56.316Z,9.38
2023-01-09T11:46:48.669Z,9.48
2023-01-09T11:47:47.651Z,9.42
2023-01-09T11:48:48.334Z,9.35
2023-01-09T11:49:49.876Z,9.36
2023-01-09T11:50:47.389Z,9.28
2023-01-09T11:51:47.777Z,9.28
2023-01-09T11:52:47.596Z,9.29
2023-01-09T11:53:47.640Z,9.29
2023-01-09T11:54:47.605Z,9.31
2023-01-09T11:55:47.790Z,9.28
2023-01-09T11:56:47.624Z,9.28
2023-01-09T11:57:47.356Z,9.35
2023-01-09T11:58:47.374Z,9.42
2023-01-09T11:59:47.687Z,9.47
2023-01-09T12:00:47.620Z,9.50
2023-01-09T12:01:47.682Z,9.53
2023-01-09T12:02:54.153Z,9.58
2023-01-09T12:03:46.948Z,9.66
2023-01-09T12:04:46.985Z,9.69
2023-01-09T12:05:46.973Z,9.71
2023-01-09T12:06:46.897Z,9.71
2023-01-09T12:07:46.943Z,9.75
2023-01-09T12:08:46.877Z,9.76
2023-01-09T12:09:46.903Z,9.79
2023-01-09T12:10:46.844Z,9.75
2023-01-09T12:11:46.871Z,9.71
2023-01-09T12:12:46.823Z,9.69
2023-01-09T12:13:46.817Z,9.69
2023-01-09T12:14:47.865Z,9.69
2023-01-09T12:15:46.797Z,9.65
2023-01-09T12:16:46.799Z,9.61
2023-01-09T12:17:46.859Z,9.60
2023-01-09T12:18:46.740Z,9.54
2023-01-09T12:19:46.762Z,9.56
2023-01-09T12:20:46.754Z,9.56
2023-01-09T12:21:46.720Z,9.54
2023-01-09T12:22:46.705Z,9.58
2023-01-09T12:23:46.769Z,9.60
2023-01-09T12:24:46.673Z,9.64
2023-01-09T12:25:46.934Z,9.61
2023-01-09T12:26:46.642Z,9.60
2023-01-09T12:27:46.664Z,9.53
2023-01-09T12:28:46.627Z,9.50
2023-01-09T12:29:46.638Z,9.51
2023-01-09T12:30:46.592Z,9.51
2023-01-09T12:31:46.842Z,9.54
2023-01-09T12:32:46.573Z,9.58
2023-01-09T12:33:46.579Z,9.54
2023-01-09T12:34:46.538Z,9.56
2023-01-09T12:35:46.547Z,9.57
2023-01-09T12:36:46.628Z,9.58
2023-01-09T12:37:46.757Z,9.57
2023-01-09T12:38:46.540Z,9.51
2023-01-09T12:39:46.518Z,9.50
2023-01-09T12:40:46.488Z,9.47
2023-01-09T12:41:46.466Z,9.43
2023-01-09T12:42:46.467Z,9.42
2023-01-09T12:43:46.525Z,9.36
2023-01-09T12:44:46.427Z,9.36
2023-01-09T12:45:46.501Z,9.36
2023-01-09T12:46:46.415Z,9.38
2023-01-09T12:47:46.526Z,9.39
2023-01-09T12:48:46.395Z,9.46
2023-01-09T12:49:46.355Z,9.38
2023-01-09T12:50:46.393Z,9.39
2023-01-09T12:51:46.518Z,9.43
2023-01-09T12:52:46.336Z,9.51
2023-01-09T12:53:46.325Z,9.57
2023-01-09T12:54:46.440Z,9.60
2023-01-09T12:55:46.424Z,9.61
2023-01-09T12:56:46.293Z,9.66
2023-01-09T12:57:46.332Z,9.65
2023-01-09T12:58:46.268Z,9.61
2023-01-09T12:59:46.230Z,9.53
2023-01-09T13:00:46.321Z,9.50
2023-01-09T13:01:46.302Z,9.50
2023-01-09T13:02:46.213Z,9.53
2023-01-09T13:03:46.202Z,9.51
2023-01-09T13:04:46.183Z,9.50
2023-01-09T13:05:46.150Z,9.53
2023-01-09T13:06:46.168Z,9.54
2023-01-09T13:07:47.892Z,9.57
2023-01-09T13:08:46.141Z,9.61
2023-01-09T13:09:46.122Z,9.61
2023-01-09T13:10:46.286Z,9.65
2023-01-09T13:11:46.083Z,9.68
2023-01-09T13:12:46.079Z,9.68
2023-01-09T13:13:46.053Z,9.68
2023-01-09T13:14:46.071Z,9.65
2023-01-09T13:15:46.033Z,9.60
2023-01-09T13:16:46.184Z,9.54
2023-01-09T13:17:45.999Z,9.47
2023-01-09T13:18:46.011Z,9.46
2023-01-09T13:19:45.980Z,9.51
2023-01-09T13:20:46.038Z,9.54
2023-01-09T13:21:45.968Z,9.58
2023-01-09T13:22:45.988Z,9.61
2023-01-09T13:23:45.931Z,9.71
2023-01-09T13:24:45.930Z,9.84
2023-01-09T13:25:45.898Z,9.91
2023-01-09T13:26:46.099Z,9.91
2023-01-09T13:27:45.876Z,9.91
2023-01-09T13:28:45.877Z,9.83
2023-01-09T13:29:45.845Z,9.75
2023-01-09T13:30:45.876Z,9.66
2023-01-09T13:31:45.835Z,9.54
2023-01-09T13:32:45.893Z,9.47
2023-01-09T13:33:45.795Z,9.43
2023-01-09T13:34:45.795Z,9.38
2023-01-09T13:35:45.776Z,9.36
2023-01-09T13:36:45.797Z,9.36
2023-01-09T13:37:45.816Z,9.35
2023-01-09T13:38:45.783Z,9.28
2023-01-09T13:39:45.762Z,9.29
2023-01-09T13:40:46.046Z,9.31
2023-01-09T13:41:45.983Z,9.29
2023-01-09T13:42:45.702Z,9.26
2023-01-09T13:43:45.679Z,9.20
2023-01-09T13:44:45.693Z,9.10
2023-01-09T13:45:45.685Z,9.02
2023-01-09T13:46:46.220Z,8.94
2023-01-09T13:47:45.630Z,8.86
2023-01-09T13:48:45.627Z,8.83
2023-01-09T13:49:45.601Z,8.81
2023-01-09T13:50:45.601Z,8.83
2023-01-09T13:51:45.609Z,8.81
2023-01-09T13:52:45.640Z,8.81
2023-01-09T13:53:45.582Z,8.80
2023-01-09T13:54:45.573Z,8.76
2023-01-09T13:55:45.523Z,8.79
2023-01-09T13:56:45.598Z,8.74
2023-01-09T13:57:45.506Z,8.77
2023-01-09T13:58:45.508Z,8.80
2023-01-09T13:59:45.478Z,8.81
2023-01-09T14:00:46.216Z,8.84
2023-01-09T14:01:45.447Z,8.80
2023-01-09T14:02:45.482Z,8.74
2023-01-09T14:03:45.419Z,8.70
2023-01-09T14:04:45.449Z,8.65
2023-01-09T14:05:45.440Z,8.62
2023-01-09T14:06:45.484Z,8.50
2023-01-09T14:07:45.380Z,8.45
2023-01-09T14:08:45.396Z,8.44
2023-01-09T14:09:45.339Z,8.41
2023-01-09T14:10:45.348Z,8.41
2023-01-09T14:11:45.355Z,8.36
2023-01-09T14:12:45.336Z,8.34
2023-01-09T14:13:45.314Z,8.30
2023-01-09T14:14:45.304Z,8.28
2023-01-09T14:15:45.265Z,8.26
2023-01-09T14:16:45.334Z,8.28
2023-01-09T14:17:46.207Z,8.33
2023-01-09T14:18:45.296Z,8.36
2023-01-09T14:19:45.229Z,8.36
2023-01-09T14:20:45.236Z,8.43
2023-01-09T14:21:45.404Z,8.48
2023-01-09T14:22:55.942Z,8.55
2023-01-09T14:23:52.159Z,8.63
2023-01-09T14:24:46.176Z,8.65
2023-01-09T14:25:45.151Z,8.68
2023-01-09T14:26:45.161Z,8.63
2023-01-09T14:27:45.162Z,8.56
2023-01-09T14:28:45.144Z,8.50
2023-01-09T14:29:45.096Z,8.50
2023-01-09T14:30:45.102Z,8.50
2023-01-09T14:31:45.117Z,8.45
2023-01-09T14:32:45.073Z,8.41
2023-01-09T14:33:45.973Z,8.37
2023-01-09T14:34:45.064Z,8.37
2023-01-09T14:35:45.041Z,8.37
2023-01-09T14:36:45.044Z,8.80
2023-01-09T14:37:44.987Z,9.15
2023-01-09T14:38:45.008Z,9.42
2023-01-09T14:39:45.734Z,9.60
2023-01-09T14:40:44.968Z,9.64
2023-01-09T14:41:44.944Z,9.78
2023-01-09T14:42:44.939Z,9.94
2023-01-09T14:43:44.924Z,10.07
2023-01-09T14:44:44.918Z,10.07
2023-01-09T14:45:45.307Z,10.12
2023-01-09T14:46:44.948Z,10.09
2023-01-09T14:47:44.860Z,9.90
2023-01-09T14:48:44.867Z,9.68
2023-01-09T14:49:44.848Z,9.32
2023-01-09T14:50:44.851Z,9.02
2023-01-09T14:51:44.848Z,8.76
2023-01-09T14:52:45.646Z,8.56
2023-01-09T14:53:44.788Z,8.43
2023-01-09T14:54:44.786Z,8.26
2023-01-09T14:55:44.794Z,8.16
2023-01-09T14:56:44.896Z,8.07
2023-01-09T14:57:44.726Z,8.00
2023-01-09T14:58:44.874Z,7.92
2023-01-09T14:59:44.713Z,7.83
2023-01-09T15:00:44.768Z,7.75
2023-01-09T15:01:44.685Z,7.68
2023-01-09T15:02:44.702Z,7.60
2023-01-09T15:03:44.668Z,7.50
2023-01-09T15:04:44.893Z,7.46
2023-01-09T15:05:44.635Z,7.40
2023-01-09T15:06:44.635Z,7.35
2023-01-09T15:07:44.610Z,7.32
2023-01-09T15:08:44.623Z,7.30
2023-01-09T15:09:44.583Z,7.27
2023-01-09T15:10:44.662Z,7.27
2023-01-09T15:11:44.562Z,7.24
2023-01-09T15:12:44.552Z,7.25
2023-01-09T15:13:44.521Z,7.25
2023-01-09T15:14:44.531Z,7.25
2023-01-09T15:15:44.550Z,7.25
2023-01-09T15:16:44.665Z,7.25
2023-01-09T15:17:44.471Z,7.28
2023-01-09T15:18:44.490Z,7.28
2023-01-09T15:19:44.452Z,7.27
2023-01-09T15:20:44.459Z,7.28
2023-01-09T15:21:44.493Z,7.28
2023-01-09T15:22:44.427Z,7.31
2023-01-09T15:23:44.425Z,7.30
2023-01-09T15:24:44.407Z,7.30
2023-01-09T15:25:44.377Z,7.30
2023-01-09T15:26:44.385Z,7.25
2023-01-09T15:27:44.385Z,7.23
2023-01-09T15:28:44.375Z,7.21
2023-01-09T15:29:44.316Z,7.16
2023-01-09T15:30:44.330Z,7.15
2023-01-09T15:31:44.396Z,7.12
2023-01-09T15:32:44.297Z,7.10
2023-01-09T15:33:44.308Z,7.10
2023-01-09T15:34:44.276Z,7.09
2023-01-09T15:35:44.248Z,7.06
2023-01-09T15:36:44.322Z,7.05
2023-01-09T15:37:44.214Z,6.99
2023-01-09T15:38:44.283Z,6.97
2023-01-09T15:39:44.185Z,6.94
2023-01-09T15:40:44.210Z,6.92
2023-01-09T15:41:44.165Z,6.89
2023-01-09T15:42:44.183Z,6.87
2023-01-09T15:43:44.157Z,6.84
2023-01-09T15:44:44.388Z,6.84
2023-01-09T15:45:44.195Z,6.81
2023-01-09T15:46:44.130Z,6.80
2023-01-09T15:47:44.113Z,6.77
2023-01-09T15:48:44.103Z,6.76
2023-01-09T15:49:44.113Z,6.73
2023-01-09T15:50:44.192Z,6.71
2023-01-09T15:51:44.041Z,6.70
2023-01-09T15:52:44.053Z,6.66
2023-01-09T15:53:44.027Z,6.64
2023-01-09T15:54:44.030Z,6.66
2023-01-09T15:55:43.991Z,6.62
2023-01-09T15:56:44.121Z,6.62
2023-01-09T15:57:43.967Z,6.58
2023-01-09T15:58:43.977Z,6.58
2023-01-09T15:59:43.939Z,6.55
2023-01-09T16:00:44.388Z,6.56
2023-01-09T16:01:43.923Z,6.54
2023-01-09T16:02:43.928Z,6.54
2023-01-09T16:03:43.886Z,6.52
2023-01-09T16:04:43.899Z,6.49
2023-01-09T16:05:43.868Z,6.48
2023-01-09T16:06:43.927Z,6.48
2023-01-09T16:07:43.836Z,6.48
2023-01-09T16:08:43.868Z,6.48
2023-01-09T16:09:43.921Z,6.49
2023-01-09T16:10:43.836Z,6.51
2023-01-09T16:11:43.788Z,6.48
2023-01-09T16:12:43.864Z,6.46
2023-01-09T16:13:43.761Z,6.43
2023-01-09T16:14:43.772Z,6.43
2023-01-09T16:15:43.733Z,6.41
2023-01-09T16:16:43.780Z,6.43
2023-01-09T16:17:44.909Z,6.43
2023-01-09T16:18:43.788Z,6.43
2023-01-09T16:19:43.716Z,6.43
2023-01-09T16:20:43.706Z,6.40
2023-01-09T16:21:43.654Z,6.41
2023-01-09T16:22:43.719Z,6.41
2023-01-09T16:23:43.639Z,6.41
2023-01-09T16:24:43.800Z,6.40
2023-01-09T16:25:43.716Z,6.41
2023-01-09T16:26:43.622Z,6.40
2023-01-09T16:27:43.593Z,6.38
2023-01-09T16:28:43.596Z,6.40
2023-01-09T16:29:43.561Z,6.38
2023-01-09T16:30:43.699Z,6.36
2023-01-09T16:31:43.583Z,6.34
2023-01-09T16:32:43.553Z,6.31
2023-01-09T16:33:43.518Z,6.28
2023-01-09T16:34:43.541Z,6.25
2023-01-09T16:35:43.492Z,6.18
2023-01-09T16:36:43.594Z,6.17
2023-01-09T16:37:43.467Z,6.12
2023-01-09T16:38:43.472Z,6.09
2023-01-09T16:39:43.449Z,6.06
2023-01-09T16:40:43.445Z,6.00
2023-01-09T16:41:43.400Z,5.99
2023-01-09T16:42:43.647Z,5.96
2023-01-09T16:43:43.406Z,5.94
2023-01-09T16:44:43.400Z,5.94
2023-01-09T16:45:43.390Z,5.94
2023-01-09T16:46:43.365Z,5.94
2023-01-09T16:47:43.333Z,5.97
2023-01-09T16:48:43.816Z,5.96
2023-01-09T16:49:43.390Z,5.97
2023-01-09T16:50:43.312Z,5.99
2023-01-09T16:51:43.276Z,6.00
2023-01-09T16:52:45.226Z,6.01
2023-01-09T16:53:43.277Z,6.01
2023-01-09T16:54:43.334Z,6.04
2023-01-09T16:55:43.251Z,6.06
2023-01-09T16:56:43.221Z,6.08
2023-01-09T16:57:43.256Z,6.08
2023-01-09T16:58:43.185Z,6.09
2023-01-09T16:59:43.197Z,6.11
2023-01-09T17:00:44.051Z,6.11
2023-01-09T17:01:43.172Z,6.12
2023-01-09T17:02:43.258Z,6.12
2023-01-09T17:03:44.217Z,6.08
2023-01-09T17:04:43.122Z,6.11
2023-01-09T17:05:43.149Z,6.09
2023-01-09T17:06:43.169Z,6.08
2023-01-09T17:07:43.099Z,6.04
2023-01-09T17:08:43.068Z,6.04
2023-01-09T17:09:43.078Z,6.03
2023-01-09T17:10:43.091Z,6.00
2023-01-09T17:11:43.047Z,5.99
2023-01-09T17:12:43.128Z,5.96
2023-01-09T17:13:43.019Z,5.96
2023-01-09T17:14:42.988Z,5.96
2023-01-09T17:15:42.990Z,5.94
2023-01-09T17:16:50.542Z,5.93
2023-01-09T17:17:42.964Z,5.94
2023-01-09T17:18:43.131Z,5.91
2023-01-09T17:19:42.954Z,5.90
2023-01-09T17:20:42.915Z,5.86
2023-01-09T17:21:42.914Z,5.86
2023-01-09T17:22:42.919Z,5.83
2023-01-09T17:23:42.931Z,5.82
2023-01-09T17:24:43.438Z,5.75
2023-01-09T17:25:42.891Z,5.71
2023-01-09T17:26:42.844Z,5.65
2023-01-09T17:27:42.848Z,5.64
2023-01-09T17:28:45.836Z,5.63
2023-01-09T17:29:42.813Z,5.58
2023-01-09T17:30:43.140Z,5.56
2023-01-09T17:31:42.841Z,5.56
2023-01-09T17:32:42.801Z,5.51
2023-01-09T17:33:42.784Z,5.49
2023-01-09T17:34:42.741Z,5.46
2023-01-09T17:35:42.747Z,5.48
2023-01-09T17:36:42.926Z,5.49
2023-01-09T17:37:42.750Z,5.49
2023-01-09T17:38:42.691Z,5.49
2023-01-09T17:39:42.689Z,5.49
2023-01-09T17:40:42.692Z,5.48
2023-01-09T17:41:42.682Z,5.49
2023-01-09T17:42:42.763Z,5.51
2023-01-09T17:43:44.565Z,5.51
2023-01-09T17:44:42.634Z,5.51
2023-01-09T17:45:42.721Z,5.53
2023-01-09T17:46:42.607Z,5.54
2023-01-09T17:47:42.594Z,5.56
2023-01-09T17:48:42.740Z,5.57
2023-01-09T17:49:42.591Z,5.57
2023-01-09T17:50:42.562Z,5.58
2023-01-09T17:51:42.572Z,5.56
2023-01-09T17:52:42.549Z,5.56
2023-01-09T17:53:42.516Z,5.56
2023-01-09T17:54:42.559Z,5.56
2023-01-09T17:55:42.515Z,5.57
2023-01-09T17:56:42.469Z,5.57
2023-01-09T17:57:43.339Z,5.60
2023-01-09T17:58:42.434Z,5.61
2023-01-09T17:59:42.451Z,5.61
2023-01-09T18:00:43.407Z,5.63
2023-01-09T18:01:42.498Z,5.64
2023-01-09T18:02:42.407Z,5.65
2023-01-09T18:03:42.407Z,5.67
2023-01-09T18:04:42.353Z,5.68
2023-01-09T18:05:42.352Z,5.68
2023-01-09T18:06:42.453Z,5.68
2023-01-09T18:07:42.332Z,5.68
2023-01-09T18:08:42.307Z,5.72
2023-01-09T18:09:42.360Z,5.72
2023-01-09T18:10:42.291Z,5.75
2023-01-09T18:11:42.301Z,5.75
2023-01-09T18:12:42.510Z,5.78
2023-01-09T18:13:42.310Z,5.76
2023-01-09T18:14:42.230Z,5.75
2023-01-09T18:15:42.251Z,5.75
2023-01-09T18:16:42.274Z,5.75
2023-01-09T18:17:42.223Z,5.76
2023-01-09T18:18:42.694Z,5.75